sensor_id;sensor_type;location;lat;lon;timestamp;temperature;humidity
70234;DHT22;75981;42.636;23.376;2024-01-25T00:00:53;6.73;54.51
70234;DHT22;75981;42.636;23.376;2024-01-25T00:03:18;6.48;55.23
70234;DHT22;75981;42.636;23.376;2024-01-25T00:05:44;6.56;55.19
70234;DHT22;75981;42.636;23.376;2024-01-25T00:08:09;5.63;57.41
70234;DHT22;75981;42.636;23.376;2024-01-25T00:10:35;5.91;56.91
70234;DHT22;75981;42.636;23.376;2024-01-25T00:13:00;4.87;58.98
70234;DHT22;75981;42.636;23.376;2024-01-25T00:15:26;4.52;60.56
70234;DHT22;75981;42.636;23.376;2024-01-25T00:17:52;4.60;60.24
70234;DHT22;75981;42.636;23.376;2024-01-25T00:20:17;5.35;57.92
70234;DHT22;75981;42.636;23.376;2024-01-25T00:22:43;5.73;56.65
70234;DHT22;75981;42.636;23.376;2024-01-25T00:25:08;5.70;56.11
70234;DHT22;75981;42.636;23.376;2024-01-25T00:27:34;6.00;55.14
70234;DHT22;75981;42.636;23.376;2024-01-25T00:29:59;6.15;54.74
70234;DHT22;75981;42.636;23.376;2024-01-25T00:32:25;6.34;54.05
70234;DHT22;75981;42.636;23.376;2024-01-25T00:34:51;6.38;53.78
70234;DHT22;75981;42.636;23.376;2024-01-25T00:37:16;6.08;54.29
70234;DHT22;75981;42.636;23.376;2024-01-25T00:39:42;6.08;54.21
70234;DHT22;75981;42.636;23.376;2024-01-25T00:42:12;6.28;54.06
70234;DHT22;75981;42.636;23.376;2024-01-25T00:44:38;6.42;54.18
70234;DHT22;75981;42.636;23.376;2024-01-25T00:47:03;6.56;53.90
70234;DHT22;75981;42.636;23.376;2024-01-25T00:49:29;5.89;55.33
70234;DHT22;75981;42.636;23.376;2024-01-25T00:51:58;6.41;54.39
70234;DHT22;75981;42.636;23.376;2024-01-25T00:54:25;6.45;53.03
70234;DHT22;75981;42.636;23.376;2024-01-25T00:56:51;6.63;52.29
70234;DHT22;75981;42.636;23.376;2024-01-25T00:59:18;6.75;53.15
70234;DHT22;75981;42.636;23.376;2024-01-25T01:01:46;6.84;52.92
70234;DHT22;75981;42.636;23.376;2024-01-25T01:04:12;6.68;54.01
70234;DHT22;75981;42.636;23.376;2024-01-25T01:06:38;6.62;54.95
70234;DHT22;75981;42.636;23.376;2024-01-25T01:09:04;6.49;55.40
70234;DHT22;75981;42.636;23.376;2024-01-25T01:11:30;6.38;55.66
70234;DHT22;75981;42.636;23.376;2024-01-25T01:13:55;6.15;56.01
70234;DHT22;75981;42.636;23.376;2024-01-25T01:16:21;6.39;56.33
70234;DHT22;75981;42.636;23.376;2024-01-25T01:18:46;6.50;55.50
70234;DHT22;75981;42.636;23.376;2024-01-25T01:21:12;6.52;54.73
70234;DHT22;75981;42.636;23.376;2024-01-25T01:23:37;5.70;56.93
70234;DHT22;75981;42.636;23.376;2024-01-25T01:26:04;6.20;55.76
70234;DHT22;75981;42.636;23.376;2024-01-25T01:28:29;6.32;55.51
70234;DHT22;75981;42.636;23.376;2024-01-25T01:30:55;6.13;55.73
70234;DHT22;75981;42.636;23.376;2024-01-25T01:33:20;5.84;56.25
70234;DHT22;75981;42.636;23.376;2024-01-25T01:35:46;5.60;57.13
70234;DHT22;75981;42.636;23.376;2024-01-25T01:38:11;5.87;56.65
70234;DHT22;75981;42.636;23.376;2024-01-25T01:40:37;5.93;56.26
70234;DHT22;75981;42.636;23.376;2024-01-25T01:43:03;5.65;57.61
70234;DHT22;75981;42.636;23.376;2024-01-25T01:45:28;5.94;56.79
70234;DHT22;75981;42.636;23.376;2024-01-25T01:47:55;5.56;57.17
70234;DHT22;75981;42.636;23.376;2024-01-25T01:50:21;5.29;58.23
70234;DHT22;75981;42.636;23.376;2024-01-25T01:52:48;5.97;56.96
70234;DHT22;75981;42.636;23.376;2024-01-25T01:55:14;6.13;56.59
70234;DHT22;75981;42.636;23.376;2024-01-25T01:57:40;5.08;59.40
70234;DHT22;75981;42.636;23.376;2024-01-25T02:00:08;5.32;58.97
70234;DHT22;75981;42.636;23.376;2024-01-25T02:02:35;5.97;57.58
70234;DHT22;75981;42.636;23.376;2024-01-25T02:05:01;6.10;57.13
70234;DHT22;75981;42.636;23.376;2024-01-25T02:07:27;6.17;56.70
70234;DHT22;75981;42.636;23.376;2024-01-25T02:09:52;6.34;56.57
70234;DHT22;75981;42.636;23.376;2024-01-25T02:12:18;6.29;56.56
70234;DHT22;75981;42.636;23.376;2024-01-25T02:14:43;6.13;56.62
70234;DHT22;75981;42.636;23.376;2024-01-25T02:17:09;6.41;56.35
70234;DHT22;75981;42.636;23.376;2024-01-25T02:19:34;6.59;55.81
70234;DHT22;75981;42.636;23.376;2024-01-25T02:22:01;6.53;56.32
70234;DHT22;75981;42.636;23.376;2024-01-25T02:24:29;6.10;56.52
70234;DHT22;75981;42.636;23.376;2024-01-25T02:26:55;4.97;60.51
70234;DHT22;75981;42.636;23.376;2024-01-25T02:29:20;4.99;60.28
70234;DHT22;75981;42.636;23.376;2024-01-25T02:31:46;4.63;61.97
70234;DHT22;75981;42.636;23.376;2024-01-25T02:34:11;4.12;62.61
70234;DHT22;75981;42.636;23.376;2024-01-25T02:36:37;4.23;62.60
70234;DHT22;75981;42.636;23.376;2024-01-25T02:39:02;4.15;63.54
70234;DHT22;75981;42.636;23.376;2024-01-25T02:41:30;4.23;62.95
70234;DHT22;75981;42.636;23.376;2024-01-25T02:43:55;4.57;62.23
70234;DHT22;75981;42.636;23.376;2024-01-25T02:46:21;4.42;62.69
70234;DHT22;75981;42.636;23.376;2024-01-25T02:48:46;4.63;62.26
70234;DHT22;75981;42.636;23.376;2024-01-25T02:51:12;3.67;65.41
70234;DHT22;75981;42.636;23.376;2024-01-25T02:53:37;3.85;65.51
70234;DHT22;75981;42.636;23.376;2024-01-25T02:56:03;4.35;63.98
70234;DHT22;75981;42.636;23.376;2024-01-25T02:58:28;4.58;63.33
70234;DHT22;75981;42.636;23.376;2024-01-25T03:00:54;4.47;63.31
70234;DHT22;75981;42.636;23.376;2024-01-25T03:03:19;4.88;62.52
70234;DHT22;75981;42.636;23.376;2024-01-25T03:05:45;4.80;62.95
70234;DHT22;75981;42.636;23.376;2024-01-25T03:08:10;4.64;63.37
70234;DHT22;75981;42.636;23.376;2024-01-25T03:10:35;4.83;62.93
70234;DHT22;75981;42.636;23.376;2024-01-25T03:13:01;5.36;61.19
70234;DHT22;75981;42.636;23.376;2024-01-25T03:15:26;5.50;60.67
70234;DHT22;75981;42.636;23.376;2024-01-25T03:17:52;5.77;61.45
70234;DHT22;75981;42.636;23.376;2024-01-25T03:20:17;6.22;62.81
70234;DHT22;75981;42.636;23.376;2024-01-25T03:22:43;6.66;64.05
70234;DHT22;75981;42.636;23.376;2024-01-25T03:25:08;7.14;63.38
70234;DHT22;75981;42.636;23.376;2024-01-25T03:27:35;7.35;62.89
70234;DHT22;75981;42.636;23.376;2024-01-25T03:30:00;7.50;62.57
70234;DHT22;75981;42.636;23.376;2024-01-25T03:32:26;7.59;62.39
70234;DHT22;75981;42.636;23.376;2024-01-25T03:34:51;7.56;62.37
70234;DHT22;75981;42.636;23.376;2024-01-25T03:37:17;7.59;62.36
70234;DHT22;75981;42.636;23.376;2024-01-25T03:39:42;7.52;62.56
70234;DHT22;75981;42.636;23.376;2024-01-25T03:42:08;7.48;62.53
70234;DHT22;75981;42.636;23.376;2024-01-25T03:44:33;7.47;62.40
70234;DHT22;75981;42.636;23.376;2024-01-25T03:46:59;7.47;62.44
70234;DHT22;75981;42.636;23.376;2024-01-25T03:49:24;7.36;62.54
70234;DHT22;75981;42.636;23.376;2024-01-25T03:51:50;7.45;62.29
70234;DHT22;75981;42.636;23.376;2024-01-25T03:54:15;7.47;62.18
70234;DHT22;75981;42.636;23.376;2024-01-25T03:56:41;7.44;61.81
70234;DHT22;75981;42.636;23.376;2024-01-25T03:59:07;7.44;61.68
70234;DHT22;75981;42.636;23.376;2024-01-25T04:01:41;7.35;61.58
70234;DHT22;75981;42.636;23.376;2024-01-25T04:04:07;7.48;61.15
70234;DHT22;75981;42.636;23.376;2024-01-25T04:06:34;7.51;60.92
70234;DHT22;75981;42.636;23.376;2024-01-25T04:08:59;7.52;60.79
70234;DHT22;75981;42.636;23.376;2024-01-25T04:11:25;7.51;60.76
70234;DHT22;75981;42.636;23.376;2024-01-25T04:13:50;7.52;60.78
70234;DHT22;75981;42.636;23.376;2024-01-25T04:16:16;7.54;60.71
70234;DHT22;75981;42.636;23.376;2024-01-25T04:18:41;7.62;61.07
70234;DHT22;75981;42.636;23.376;2024-01-25T04:21:06;7.73;61.07
70234;DHT22;75981;42.636;23.376;2024-01-25T04:23:32;7.85;60.93
70234;DHT22;75981;42.636;23.376;2024-01-25T04:25:57;7.71;60.95
70234;DHT22;75981;42.636;23.376;2024-01-25T04:28:23;7.69;60.73
70234;DHT22;75981;42.636;23.376;2024-01-25T04:30:48;7.71;60.49
70234;DHT22;75981;42.636;23.376;2024-01-25T04:33:13;7.73;60.23
70234;DHT22;75981;42.636;23.376;2024-01-25T04:35:39;7.69;60.22
70234;DHT22;75981;42.636;23.376;2024-01-25T04:38:04;7.65;60.21
70234;DHT22;75981;42.636;23.376;2024-01-25T04:40:30;7.62;59.95
70234;DHT22;75981;42.636;23.376;2024-01-25T04:42:55;7.68;59.43
70234;DHT22;75981;42.636;23.376;2024-01-25T04:45:21;7.68;59.35
70234;DHT22;75981;42.636;23.376;2024-01-25T04:47:46;7.66;59.48
70234;DHT22;75981;42.636;23.376;2024-01-25T04:50:12;7.58;59.67
70234;DHT22;75981;42.636;23.376;2024-01-25T04:52:37;7.48;59.51
70234;DHT22;75981;42.636;23.376;2024-01-25T04:55:02;7.34;59.81
70234;DHT22;75981;42.636;23.376;2024-01-25T04:57:28;7.23;59.88
70234;DHT22;75981;42.636;23.376;2024-01-25T04:59:54;7.18;59.67
70234;DHT22;75981;42.636;23.376;2024-01-25T05:02:19;7.30;59.19
70234;DHT22;75981;42.636;23.376;2024-01-25T05:04:45;7.23;59.56
70234;DHT22;75981;42.636;23.376;2024-01-25T05:07:10;7.28;59.30
70234;DHT22;75981;42.636;23.376;2024-01-25T05:09:36;7.15;59.37
70234;DHT22;75981;42.636;23.376;2024-01-25T05:12:01;7.28;58.77
70234;DHT22;75981;42.636;23.376;2024-01-25T05:14:27;7.17;59.23
70234;DHT22;75981;42.636;23.376;2024-01-25T05:16:52;7.05;59.41
70234;DHT22;75981;42.636;23.376;2024-01-25T05:19:18;6.97;59.36
70234;DHT22;75981;42.636;23.376;2024-01-25T05:21:43;7.04;58.93
70234;DHT22;75981;42.636;23.376;2024-01-25T05:24:09;7.04;58.76
70234;DHT22;75981;42.636;23.376;2024-01-25T05:26:35;7.00;58.92
70234;DHT22;75981;42.636;23.376;2024-01-25T05:29:00;7.04;58.40
70234;DHT22;75981;42.636;23.376;2024-01-25T05:31:26;7.14;57.70
70234;DHT22;75981;42.636;23.376;2024-01-25T05:33:52;7.24;57.37
70234;DHT22;75981;42.636;23.376;2024-01-25T05:36:17;7.32;56.86
70234;DHT22;75981;42.636;23.376;2024-01-25T05:38:42;7.32;56.75
70234;DHT22;75981;42.636;23.376;2024-01-25T05:41:08;7.38;57.05
70234;DHT22;75981;42.636;23.376;2024-01-25T05:43:33;7.38;57.08
70234;DHT22;75981;42.636;23.376;2024-01-25T05:45:59;7.25;57.26
70234;DHT22;75981;42.636;23.376;2024-01-25T05:48:24;7.27;57.12
70234;DHT22;75981;42.636;23.376;2024-01-25T05:50:49;7.27;57.09
70234;DHT22;75981;42.636;23.376;2024-01-25T05:53:15;7.34;56.34
70234;DHT22;75981;42.636;23.376;2024-01-25T05:55:44;7.35;56.52
70234;DHT22;75981;42.636;23.376;2024-01-25T05:58:09;7.47;55.99
70234;DHT22;75981;42.636;23.376;2024-01-25T06:00:35;7.42;56.55
70234;DHT22;75981;42.636;23.376;2024-01-25T06:03:00;7.42;56.82
70234;DHT22;75981;42.636;23.376;2024-01-25T06:05:25;7.34;57.14
70234;DHT22;75981;42.636;23.376;2024-01-25T06:07:51;7.38;57.03
70234;DHT22;75981;42.636;23.376;2024-01-25T06:10:16;7.31;57.44
70234;DHT22;75981;42.636;23.376;2024-01-25T06:12:42;7.27;57.62
70234;DHT22;75981;42.636;23.376;2024-01-25T06:15:08;7.31;57.65
70234;DHT22;75981;42.636;23.376;2024-01-25T06:17:33;7.31;57.72
70234;DHT22;75981;42.636;23.376;2024-01-25T06:19:59;7.23;57.58
70234;DHT22;75981;42.636;23.376;2024-01-25T06:22:24;7.21;57.64
70234;DHT22;75981;42.636;23.376;2024-01-25T06:24:50;7.21;57.49
70234;DHT22;75981;42.636;23.376;2024-01-25T06:27:15;7.27;57.50
70234;DHT22;75981;42.636;23.376;2024-01-25T06:29:40;7.24;57.58
70234;DHT22;75981;42.636;23.376;2024-01-25T06:32:06;7.21;57.70
70234;DHT22;75981;42.636;23.376;2024-01-25T06:34:32;7.32;57.41
70234;DHT22;75981;42.636;23.376;2024-01-25T06:36:57;7.15;57.69
70234;DHT22;75981;42.636;23.376;2024-01-25T06:39:22;7.14;57.97
70234;DHT22;75981;42.636;23.376;2024-01-25T06:41:48;7.24;57.79
70234;DHT22;75981;42.636;23.376;2024-01-25T06:44:13;7.27;57.71
70234;DHT22;75981;42.636;23.376;2024-01-25T06:46:39;7.18;57.85
70234;DHT22;75981;42.636;23.376;2024-01-25T06:49:04;7.14;58.06
70234;DHT22;75981;42.636;23.376;2024-01-25T06:51:30;7.14;57.96
70234;DHT22;75981;42.636;23.376;2024-01-25T06:53:55;7.36;59.00
70234;DHT22;75981;42.636;23.376;2024-01-25T06:56:21;8.06;61.20
70234;DHT22;75981;42.636;23.376;2024-01-25T06:58:46;8.41;59.97
70234;DHT22;75981;42.636;23.376;2024-01-25T07:01:12;7.99;58.58
70234;DHT22;75981;42.636;23.376;2024-01-25T07:03:37;7.66;56.49
70234;DHT22;75981;42.636;23.376;2024-01-25T07:06:03;7.45;57.08
70234;DHT22;75981;42.636;23.376;2024-01-25T07:08:29;7.23;57.45
70234;DHT22;75981;42.636;23.376;2024-01-25T07:10:54;7.27;57.22
70234;DHT22;75981;42.636;23.376;2024-01-25T07:13:21;7.24;57.22
70234;DHT22;75981;42.636;23.376;2024-01-25T07:15:47;7.27;57.24
70234;DHT22;75981;42.636;23.376;2024-01-25T07:18:13;7.24;57.16
70234;DHT22;75981;42.636;23.376;2024-01-25T07:20:38;7.32;57.12
70234;DHT22;75981;42.636;23.376;2024-01-25T07:23:04;7.30;57.18
70234;DHT22;75981;42.636;23.376;2024-01-25T07:25:29;7.24;56.71
70234;DHT22;75981;42.636;23.376;2024-01-25T07:27:54;7.31;56.96
70234;DHT22;75981;42.636;23.376;2024-01-25T07:30:20;7.28;57.19
70234;DHT22;75981;42.636;23.376;2024-01-25T07:32:45;7.35;57.16
70234;DHT22;75981;42.636;23.376;2024-01-25T07:35:12;7.28;56.37
70234;DHT22;75981;42.636;23.376;2024-01-25T07:37:39;7.30;56.48
70234;DHT22;75981;42.636;23.376;2024-01-25T07:40:06;7.20;57.00
70234;DHT22;75981;42.636;23.376;2024-01-25T07:42:32;7.28;56.87
70234;DHT22;75981;42.636;23.376;2024-01-25T07:44:57;7.24;56.54
70234;DHT22;75981;42.636;23.376;2024-01-25T07:47:22;7.25;56.94
70234;DHT22;75981;42.636;23.376;2024-01-25T07:49:48;7.36;56.60
70234;DHT22;75981;42.636;23.376;2024-01-25T07:52:13;7.44;56.37
70234;DHT22;75981;42.636;23.376;2024-01-25T07:54:39;7.48;56.17
70234;DHT22;75981;42.636;23.376;2024-01-25T07:57:04;7.41;55.92
70234;DHT22;75981;42.636;23.376;2024-01-25T07:59:30;7.48;55.96
70234;DHT22;75981;42.636;23.376;2024-01-25T08:01:56;7.48;56.24
70234;DHT22;75981;42.636;23.376;2024-01-25T08:04:21;7.54;55.96
70234;DHT22;75981;42.636;23.376;2024-01-25T08:06:47;7.47;55.74
70234;DHT22;75981;42.636;23.376;2024-01-25T08:09:13;7.50;55.44
70234;DHT22;75981;42.636;23.376;2024-01-25T08:11:39;7.52;55.86
70234;DHT22;75981;42.636;23.376;2024-01-25T08:14:05;7.61;55.68
70234;DHT22;75981;42.636;23.376;2024-01-25T08:16:31;7.63;55.00
70234;DHT22;75981;42.636;23.376;2024-01-25T08:18:56;7.54;55.00
70234;DHT22;75981;42.636;23.376;2024-01-25T08:21:23;7.61;55.46
70234;DHT22;75981;42.636;23.376;2024-01-25T08:23:49;7.54;55.16
70234;DHT22;75981;42.636;23.376;2024-01-25T08:26:14;7.63;54.57
70234;DHT22;75981;42.636;23.376;2024-01-25T08:28:40;7.75;54.73
70234;DHT22;75981;42.636;23.376;2024-01-25T08:31:06;7.81;54.42
70234;DHT22;75981;42.636;23.376;2024-01-25T08:33:31;7.69;54.33
70234;DHT22;75981;42.636;23.376;2024-01-25T08:35:56;7.68;53.60
70234;DHT22;75981;42.636;23.376;2024-01-25T08:38:22;7.71;54.32
70234;DHT22;75981;42.636;23.376;2024-01-25T08:40:48;7.76;54.31
70234;DHT22;75981;42.636;23.376;2024-01-25T08:43:13;7.71;54.08
70234;DHT22;75981;42.636;23.376;2024-01-25T08:45:39;7.68;53.78
70234;DHT22;75981;42.636;23.376;2024-01-25T08:48:04;7.75;53.77
70234;DHT22;75981;42.636;23.376;2024-01-25T08:50:30;7.73;53.52
70234;DHT22;75981;42.636;23.376;2024-01-25T08:52:56;7.72;53.57
70234;DHT22;75981;42.636;23.376;2024-01-25T08:55:21;7.78;53.75
70234;DHT22;75981;42.636;23.376;2024-01-25T08:57:50;7.92;53.62
70234;DHT22;75981;42.636;23.376;2024-01-25T09:00:16;7.92;53.93
70234;DHT22;75981;42.636;23.376;2024-01-25T09:02:41;7.86;53.69
70234;DHT22;75981;42.636;23.376;2024-01-25T09:05:08;7.99;53.59
70234;DHT22;75981;42.636;23.376;2024-01-25T09:07:34;8.04;53.54
70234;DHT22;75981;42.636;23.376;2024-01-25T09:09:59;8.04;53.59
70234;DHT22;75981;42.636;23.376;2024-01-25T09:12:28;8.10;53.92
70234;DHT22;75981;42.636;23.376;2024-01-25T09:14:53;8.30;53.55
70234;DHT22;75981;42.636;23.376;2024-01-25T09:17:19;8.50;52.85
70234;DHT22;75981;42.636;23.376;2024-01-25T09:19:50;8.48;52.68
70234;DHT22;75981;42.636;23.376;2024-01-25T09:22:17;8.47;53.15
70234;DHT22;75981;42.636;23.376;2024-01-25T09:24:46;8.22;53.38
70234;DHT22;75981;42.636;23.376;2024-01-25T09:27:12;8.19;53.35
70234;DHT22;75981;42.636;23.376;2024-01-25T09:29:39;8.16;53.42
70234;DHT22;75981;42.636;23.376;2024-01-25T09:32:06;8.14;54.18
70234;DHT22;75981;42.636;23.376;2024-01-25T09:34:32;8.19;53.66
70234;DHT22;75981;42.636;23.376;2024-01-25T09:36:57;8.20;54.17
70234;DHT22;75981;42.636;23.376;2024-01-25T09:39:23;8.29;53.92
70234;DHT22;75981;42.636;23.376;2024-01-25T09:41:48;8.31;53.77
70234;DHT22;75981;42.636;23.376;2024-01-25T09:44:14;8.40;53.46
70234;DHT22;75981;42.636;23.376;2024-01-25T09:46:41;8.54;52.93
70234;DHT22;75981;42.636;23.376;2024-01-25T09:49:07;8.62;53.10
70234;DHT22;75981;42.636;23.376;2024-01-25T09:51:42;8.50;53.15
70234;DHT22;75981;42.636;23.376;2024-01-25T09:54:08;8.61;53.36
70234;DHT22;75981;42.636;23.376;2024-01-25T09:56:34;8.64;53.03
70234;DHT22;75981;42.636;23.376;2024-01-25T09:59:00;8.47;53.05
70234;DHT22;75981;42.636;23.376;2024-01-25T10:01:26;8.55;53.17
70234;DHT22;75981;42.636;23.376;2024-01-25T10:03:52;8.50;53.29
70234;DHT22;75981;42.636;23.376;2024-01-25T10:06:18;8.41;53.56
70234;DHT22;75981;42.636;23.376;2024-01-25T10:08:44;8.19;54.27
70234;DHT22;75981;42.636;23.376;2024-01-25T10:11:10;8.58;53.05
70234;DHT22;75981;42.636;23.376;2024-01-25T10:13:43;8.72;53.57
70234;DHT22;75981;42.636;23.376;2024-01-25T10:16:13;8.71;53.43
70234;DHT22;75981;42.636;23.376;2024-01-25T10:18:40;8.68;53.83
70234;DHT22;75981;42.636;23.376;2024-01-25T10:21:06;8.58;53.68
70234;DHT22;75981;42.636;23.376;2024-01-25T10:23:34;8.58;53.76
70234;DHT22;75981;42.636;23.376;2024-01-25T10:25:59;8.54;53.88
70234;DHT22;75981;42.636;23.376;2024-01-25T10:28:25;8.57;53.79
70234;DHT22;75981;42.636;23.376;2024-01-25T10:30:51;8.73;54.27
70234;DHT22;75981;42.636;23.376;2024-01-25T10:33:17;8.79;53.89
70234;DHT22;75981;42.636;23.376;2024-01-25T10:35:44;8.92;53.75
70234;DHT22;75981;42.636;23.376;2024-01-25T10:38:17;8.89;53.66
70234;DHT22;75981;42.636;23.376;2024-01-25T10:40:43;8.85;53.84
70234;DHT22;75981;42.636;23.376;2024-01-25T10:43:09;8.67;54.21
70234;DHT22;75981;42.636;23.376;2024-01-25T10:45:37;8.79;54.11
70234;DHT22;75981;42.636;23.376;2024-01-25T10:48:02;8.86;54.01
70234;DHT22;75981;42.636;23.376;2024-01-25T10:50:28;8.64;54.44
70234;DHT22;75981;42.636;23.376;2024-01-25T10:52:54;8.68;54.16
70234;DHT22;75981;42.636;23.376;2024-01-25T10:55:19;8.91;54.60
70234;DHT22;75981;42.636;23.376;2024-01-25T10:57:45;9.13;53.52
70234;DHT22;75981;42.636;23.376;2024-01-25T11:00:12;9.05;53.45
70234;DHT22;75981;42.636;23.376;2024-01-25T11:02:44;8.88;53.23
70234;DHT22;75981;42.636;23.376;2024-01-25T11:05:13;8.92;53.04
70234;DHT22;75981;42.636;23.376;2024-01-25T11:07:46;9.27;52.40
70234;DHT22;75981;42.636;23.376;2024-01-25T11:10:19;9.94;51.13
70234;DHT22;75981;42.636;23.376;2024-01-25T11:13:03;9.29;52.01
70234;DHT22;75981;42.636;23.376;2024-01-25T11:17:56;9.19;51.32
70234;DHT22;75981;42.636;23.376;2024-01-25T11:20:23;9.01;51.40
70234;DHT22;75981;42.636;23.376;2024-01-25T11:22:48;8.96;51.19
70234;DHT22;75981;42.636;23.376;2024-01-25T11:25:20;9.10;52.00
70234;DHT22;75981;42.636;23.376;2024-01-25T11:27:48;9.05;51.99
70234;DHT22;75981;42.636;23.376;2024-01-25T11:30:18;8.95;52.00
70234;DHT22;75981;42.636;23.376;2024-01-25T11:32:48;8.81;52.18
70234;DHT22;75981;42.636;23.376;2024-01-25T11:35:14;8.73;52.39
70234;DHT22;75981;42.636;23.376;2024-01-25T11:37:49;8.75;52.31
70234;DHT22;75981;42.636;23.376;2024-01-25T11:40:15;8.62;51.00
70234;DHT22;75981;42.636;23.376;2024-01-25T11:42:44;8.50;51.96
70234;DHT22;75981;42.636;23.376;2024-01-25T11:45:11;8.58;51.54
70234;DHT22;75981;42.636;23.376;2024-01-25T11:47:38;8.51;51.96
70234;DHT22;75981;42.636;23.376;2024-01-25T11:50:05;8.64;51.94
70234;DHT22;75981;42.636;23.376;2024-01-25T11:52:32;8.50;51.57
70234;DHT22;75981;42.636;23.376;2024-01-25T11:55:08;8.55;50.93
70234;DHT22;75981;42.636;23.376;2024-01-25T11:57:38;8.47;51.63
70234;DHT22;75981;42.636;23.376;2024-01-25T12:00:08;8.52;51.40
70234;DHT22;75981;42.636;23.376;2024-01-25T12:02:36;8.58;51.43
70234;DHT22;75981;42.636;23.376;2024-01-25T12:05:02;8.62;51.07
70234;DHT22;75981;42.636;23.376;2024-01-25T12:07:30;8.68;51.67
70234;DHT22;75981;42.636;23.376;2024-01-25T12:09:59;8.68;51.76
70234;DHT22;75981;42.636;23.376;2024-01-25T12:12:25;8.76;51.83
70234;DHT22;75981;42.636;23.376;2024-01-25T12:14:50;8.64;51.31
70234;DHT22;75981;42.636;23.376;2024-01-25T12:17:17;8.69;51.53
70234;DHT22;75981;42.636;23.376;2024-01-25T12:19:43;8.57;51.31
70234;DHT22;75981;42.636;23.376;2024-01-25T12:22:08;8.54;51.16
70234;DHT22;75981;42.636;23.376;2024-01-25T12:24:35;8.54;51.09
70234;DHT22;75981;42.636;23.376;2024-01-25T12:27:00;8.69;50.98
70234;DHT22;75981;42.636;23.376;2024-01-25T12:29:26;8.79;51.10
70234;DHT22;75981;42.636;23.376;2024-01-25T12:31:51;9.34;49.65
70234;DHT22;75981;42.636;23.376;2024-01-25T12:34:16;10.06;48.21
70234;DHT22;75981;42.636;23.376;2024-01-25T12:36:42;10.18;47.69
70234;DHT22;75981;42.636;23.376;2024-01-25T12:39:08;10.19;47.79
70234;DHT22;75981;42.636;23.376;2024-01-25T12:41:34;10.40;47.46
70234;DHT22;75981;42.636;23.376;2024-01-25T12:44:00;10.52;47.11
70234;DHT22;75981;42.636;23.376;2024-01-25T12:46:25;10.56;46.69
70234;DHT22;75981;42.636;23.376;2024-01-25T12:48:51;10.40;46.84
70234;DHT22;75981;42.636;23.376;2024-01-25T12:51:20;10.56;46.56
70234;DHT22;75981;42.636;23.376;2024-01-25T12:53:46;10.76;46.75
70234;DHT22;75981;42.636;23.376;2024-01-25T12:56:12;10.53;46.77
70234;DHT22;75981;42.636;23.376;2024-01-25T12:58:37;10.77;46.21
70234;DHT22;75981;42.636;23.376;2024-01-25T13:01:03;10.63;45.59
70234;DHT22;75981;42.636;23.376;2024-01-25T13:03:28;10.74;45.61
70234;DHT22;75981;42.636;23.376;2024-01-25T13:05:54;10.80;44.95
70234;DHT22;75981;42.636;23.376;2024-01-25T13:08:19;11.04;44.33
70234;DHT22;75981;42.636;23.376;2024-01-25T13:10:45;10.94;44.66
70234;DHT22;75981;42.636;23.376;2024-01-25T13:13:10;10.77;45.10
70234;DHT22;75981;42.636;23.376;2024-01-25T13:15:35;10.63;44.69
70234;DHT22;75981;42.636;23.376;2024-01-25T13:18:01;10.76;45.55
70234;DHT22;75981;42.636;23.376;2024-01-25T13:20:26;10.50;45.09
70234;DHT22;75981;42.636;23.376;2024-01-25T13:22:52;10.76;45.30
70234;DHT22;75981;42.636;23.376;2024-01-25T13:25:17;10.77;44.89
70234;DHT22;75981;42.636;23.376;2024-01-25T13:27:42;10.49;45.19
70234;DHT22;75981;42.636;23.376;2024-01-25T13:30:08;10.15;46.08
70234;DHT22;75981;42.636;23.376;2024-01-25T13:32:36;10.12;46.24
70234;DHT22;75981;42.636;23.376;2024-01-25T13:35:02;9.94;46.60
70234;DHT22;75981;42.636;23.376;2024-01-25T13:37:28;10.25;46.35
70234;DHT22;75981;42.636;23.376;2024-01-25T13:39:53;9.85;47.23
70234;DHT22;75981;42.636;23.376;2024-01-25T13:42:19;9.84;46.97
70234;DHT22;75981;42.636;23.376;2024-01-25T13:44:44;9.71;47.60
70234;DHT22;75981;42.636;23.376;2024-01-25T13:47:10;9.46;48.10
70234;DHT22;75981;42.636;23.376;2024-01-25T13:49:35;9.27;48.28
70234;DHT22;75981;42.636;23.376;2024-01-25T13:52:01;9.29;48.84
70234;DHT22;75981;42.636;23.376;2024-01-25T13:54:30;9.12;48.88
70234;DHT22;75981;42.636;23.376;2024-01-25T13:56:55;8.96;48.85
70234;DHT22;75981;42.636;23.376;2024-01-25T13:59:21;9.10;49.29
70234;DHT22;75981;42.636;23.376;2024-01-25T14:01:46;8.88;50.11
70234;DHT22;75981;42.636;23.376;2024-01-25T14:04:12;8.95;49.44
70234;DHT22;75981;42.636;23.376;2024-01-25T14:06:38;9.06;49.53
70234;DHT22;75981;42.636;23.376;2024-01-25T14:09:04;9.01;49.52
70234;DHT22;75981;42.636;23.376;2024-01-25T14:11:30;8.76;49.86
70234;DHT22;75981;42.636;23.376;2024-01-25T14:13:56;8.73;50.41
70234;DHT22;75981;42.636;23.376;2024-01-25T14:16:22;8.85;50.48
70234;DHT22;75981;42.636;23.376;2024-01-25T14:18:48;8.78;50.31
70234;DHT22;75981;42.636;23.376;2024-01-25T14:21:13;8.78;50.36
70234;DHT22;75981;42.636;23.376;2024-01-25T14:23:39;8.69;50.68
70234;DHT22;75981;42.636;23.376;2024-01-25T14:26:04;8.69;50.66
70234;DHT22;75981;42.636;23.376;2024-01-25T14:28:30;8.76;50.73
70234;DHT22;75981;42.636;23.376;2024-01-25T14:30:55;8.52;50.73
70234;DHT22;75981;42.636;23.376;2024-01-25T14:33:21;8.45;51.19
70234;DHT22;75981;42.636;23.376;2024-01-25T14:35:47;8.38;51.30
70234;DHT22;75981;42.636;23.376;2024-01-25T14:38:12;8.37;51.28
70234;DHT22;75981;42.636;23.376;2024-01-25T14:40:38;8.29;51.62
70234;DHT22;75981;42.636;23.376;2024-01-25T14:43:06;8.30;51.57
70234;DHT22;75981;42.636;23.376;2024-01-25T14:45:31;8.23;51.69
70234;DHT22;75981;42.636;23.376;2024-01-25T14:47:59;8.27;51.67
70234;DHT22;75981;42.636;23.376;2024-01-25T14:50:24;8.33;51.67
70234;DHT22;75981;42.636;23.376;2024-01-25T14:52:50;8.22;52.03
70234;DHT22;75981;42.636;23.376;2024-01-25T14:55:15;8.16;52.00
70234;DHT22;75981;42.636;23.376;2024-01-25T14:57:41;8.14;52.46
70234;DHT22;75981;42.636;23.376;2024-01-25T15:00:07;8.04;52.53
70234;DHT22;75981;42.636;23.376;2024-01-25T15:02:33;8.13;52.28
70234;DHT22;75981;42.636;23.376;2024-01-25T15:04:59;8.07;52.49
70234;DHT22;75981;42.636;23.376;2024-01-25T15:07:24;7.94;53.05
70234;DHT22;75981;42.636;23.376;2024-01-25T15:09:50;7.90;52.90
70234;DHT22;75981;42.636;23.376;2024-01-25T15:12:15;7.97;52.85
70234;DHT22;75981;42.636;23.376;2024-01-25T15:14:41;8.02;52.24
70234;DHT22;75981;42.636;23.376;2024-01-25T15:17:09;8.06;52.45
70234;DHT22;75981;42.636;23.376;2024-01-25T15:19:35;7.96;52.72
70234;DHT22;75981;42.636;23.376;2024-01-25T15:22:03;8.03;52.83
70234;DHT22;75981;42.636;23.376;2024-01-25T15:24:29;7.99;52.88